createdAt,value
2022-08-03T00:00:32.731Z,101449.75
2022-08-03T00:03:01.570Z,101444.78
2022-08-03T00:05:29.162Z,101442.56
2022-08-03T00:07:56.712Z,101444.66
2022-08-03T00:10:24.188Z,101438.72
2022-08-03T00:12:51.840Z,101435.44
2022-08-03T00:15:20.012Z,101432.97
2022-08-03T00:20:22.197Z,101439.72
2022-08-03T00:22:50.476Z,101448.88
2022-08-03T00:25:18.154Z,101440.19
2022-08-03T00:27:48.342Z,101443.03
2022-08-03T00:30:16.844Z,101441.47
2022-08-03T00:32:45.567Z,101431.84
2022-08-03T00:35:32.562Z,101437.28
2022-08-03T00:38:00.929Z,101445.75
2022-08-03T00:40:28.926Z,101443.53
2022-08-03T00:43:00.123Z,101443.88
2022-08-03T00:45:33.081Z,101441.38
2022-08-03T00:48:01.691Z,101438.97
2022-08-03T00:50:34.632Z,101441.75
2022-08-03T00:53:05.881Z,101437.38
2022-08-03T00:55:35.897Z,101437.53
2022-08-03T00:58:06.662Z,101434.09
2022-08-03T01:00:38.909Z,101435.97
2022-08-03T01:03:09.171Z,101439.69
2022-08-03T01:05:52.181Z,101430.16
2022-08-03T01:08:58.897Z,101426.00
2022-08-03T01:12:00.555Z,101431.78
2022-08-03T01:14:39.200Z,101427.03
2022-08-03T01:17:44.911Z,101424.63
2022-08-03T01:20:18.491Z,101426.59
2022-08-03T01:23:23.052Z,101418.69
2022-08-03T01:26:40.098Z,101412.59
2022-08-03T01:29:45.004Z,101416.38
2022-08-03T01:32:59.231Z,101415.50
2022-08-03T01:35:14.462Z,101419.97
2022-08-03T01:37:52.934Z,101404.81
2022-08-03T01:40:24.294Z,101416.44
2022-08-03T01:42:55.778Z,101413.00
2022-08-03T01:45:24.550Z,101415.16
2022-08-03T01:47:54.171Z,101419.63
2022-08-03T01:50:29.113Z,101412.56
2022-08-03T01:52:59.377Z,101416.94
2022-08-03T01:55:31.963Z,101413.44
2022-08-03T01:58:06.268Z,101405.50
2022-08-03T02:00:38.578Z,101405.69
2022-08-03T02:03:08.463Z,101405.84
2022-08-03T02:05:37.899Z,101402.41
2022-08-03T02:08:12.918Z,101400.69
2022-08-03T02:10:43.135Z,101404.41
2022-08-03T02:13:11.263Z,101404.47
2022-08-03T02:15:41.379Z,101398.38
2022-08-03T02:18:11.574Z,101394.84
2022-08-03T02:20:42.960Z,101401.19
2022-08-03T02:23:10.514Z,101395.06
2022-08-03T02:25:53.810Z,101398.63
2022-08-03T02:28:29.539Z,101393.44
2022-08-03T02:31:04.806Z,101394.31
2022-08-03T02:33:38.889Z,101395.25
2022-08-03T02:36:08.418Z,101397.16
2022-08-03T02:38:41.074Z,101396.31
2022-08-03T02:41:17.007Z,101389.22
2022-08-03T02:44:05.621Z,101388.53
2022-08-03T02:46:41.374Z,101382.53
2022-08-03T02:49:49.575Z,101381.75
2022-08-03T02:52:02.870Z,101386.38
2022-08-03T02:54:33.916Z,101386.38
2022-08-03T02:57:03.137Z,101384.66
2022-08-03T02:59:32.235Z,101383.88
2022-08-03T03:02:03.171Z,101377.75
2022-08-03T03:04:33.210Z,101380.53
2022-08-03T03:07:04.365Z,101380.53
2022-08-03T03:09:41.712Z,101382.47
2022-08-03T03:12:13.866Z,101378.06
2022-08-03T03:14:42.029Z,101383.38
2022-08-03T03:17:11.821Z,101376.28
2022-08-03T03:19:41.342Z,101383.31
2022-08-03T03:22:10.742Z,101386.81
2022-08-03T03:24:41.634Z,101385.09
2022-08-03T03:27:09.605Z,101383.28
2022-08-03T03:29:39.561Z,101377.94
2022-08-03T03:32:08.445Z,101381.50
2022-08-03T03:34:37.510Z,101378.84
2022-08-03T03:37:05.885Z,101377.13
2022-08-03T03:39:33.454Z,101378.06
2022-08-03T03:42:01.232Z,101376.34
2022-08-03T03:44:30.117Z,101381.69
2022-08-03T03:46:58.653Z,101381.69
2022-08-03T03:49:26.963Z,101376.34
2022-08-03T03:51:55.810Z,101385.13
2022-08-03T03:54:25.500Z,101377.09
2022-08-03T03:56:56.856Z,101379.66
2022-08-03T03:59:24.284Z,101387.50
2022-08-03T04:01:58.540Z,101381.97
2022-08-03T04:04:45.670Z,101381.91
2022-08-03T04:07:31.632Z,101384.41
2022-08-03T04:10:18.450Z,101378.81
2022-08-03T04:12:51.122Z,101383.97
2022-08-03T04:15:26.045Z,101391.81
2022-08-03T04:17:58.922Z,101390.72
2022-08-03T04:20:35.284Z,101383.50
2022-08-03T04:23:04.697Z,101387.78
2022-08-03T04:25:43.489Z,101385.97
2022-08-03T04:28:30.707Z,101384.06
2022-08-03T04:31:04.174Z,101383.16
2022-08-03T04:33:36.087Z,101375.94
2022-08-03T04:36:09.463Z,101388.28
2022-08-03T04:38:49.402Z,101381.06
2022-08-03T04:41:18.314Z,101389.00
2022-08-03T04:43:49.133Z,101377.28
2022-08-03T04:46:18.436Z,101383.41
2022-08-03T04:48:46.445Z,101383.31
2022-08-03T04:51:15.058Z,101391.25
2022-08-03T04:53:44.445Z,101391.50
2022-08-03T04:56:12.373Z,101393.69
2022-08-03T04:58:40.160Z,101392.25
2022-08-03T05:01:07.843Z,101398.88
2022-08-03T05:03:35.667Z,101389.41
2022-08-03T05:06:11.453Z,101395.03
2022-08-03T05:08:46.411Z,101398.78
2022-08-03T05:11:16.426Z,101401.53
2022-08-03T05:13:45.448Z,101401.66
2022-08-03T05:16:14.516Z,101402.50
2022-08-03T05:18:43.127Z,101399.84
2022-08-03T05:21:14.039Z,101399.75
2022-08-03T05:23:41.457Z,101406.88
2022-08-03T05:26:08.959Z,101402.31
2022-08-03T05:28:38.542Z,101405.78
2022-08-03T05:31:06.095Z,101409.16
2022-08-03T05:33:33.694Z,101408.22
2022-08-03T05:36:04.171Z,101404.50
2022-08-03T05:38:34.979Z,101407.75
2022-08-03T05:41:21.125Z,101414.63
2022-08-03T05:43:55.401Z,101409.97
2022-08-03T05:46:24.226Z,101410.81
2022-08-03T05:48:52.477Z,101410.66
2022-08-03T05:51:19.991Z,101420.13
2022-08-03T05:53:47.576Z,101420.72
2022-08-03T05:56:16.603Z,101424.91
2022-08-03T05:58:48.411Z,101427.31
2022-08-03T06:01:17.267Z,101430.94
2022-08-03T06:03:45.964Z,101429.06
2022-08-03T06:06:13.773Z,101424.19
2022-08-03T06:08:43.233Z,101425.75
2022-08-03T06:11:11.219Z,101428.13
2022-08-03T06:13:39.123Z,101434.91
2022-08-03T06:16:06.875Z,101433.63
2022-08-03T06:18:36.716Z,101434.09
2022-08-03T06:21:14.831Z,101430.09
2022-08-03T06:23:53.450Z,101427.84
2022-08-03T06:26:26.148Z,101429.00
2022-08-03T06:28:54.970Z,101424.81
2022-08-03T06:34:32.732Z,101420.88
2022-08-03T06:36:41.065Z,101431.66
2022-08-03T06:39:08.542Z,101434.31
2022-08-03T06:41:37.414Z,101439.69
2022-08-03T06:44:10.419Z,101442.22
2022-08-03T06:46:37.977Z,101435.91
2022-08-03T06:49:06.973Z,101443.00
2022-08-03T06:52:04.147Z,101443.69
2022-08-03T06:54:22.344Z,101439.94
2022-08-03T06:56:50.469Z,101443.16
2022-08-03T07:00:09.848Z,101446.41
2022-08-03T07:02:07.518Z,101451.88
2022-08-03T07:04:36.245Z,101444.06
2022-08-03T07:07:03.841Z,101447.13
2022-08-03T07:09:32.457Z,101448.47
2022-08-03T07:12:02.306Z,101440.16
2022-08-03T07:14:29.737Z,101439.16
2022-08-03T07:16:58.611Z,101443.19
2022-08-03T07:19:26.087Z,101445.22
2022-08-03T07:21:53.721Z,101454.56
2022-08-03T07:24:21.966Z,101447.06
2022-08-03T07:26:49.388Z,101447.72
2022-08-03T07:29:16.949Z,101452.03
2022-08-03T07:31:44.509Z,101448.38
2022-08-03T07:34:19.960Z,101452.03
2022-08-03T07:36:47.473Z,101459.97
2022-08-03T07:39:16.544Z,101449.09
2022-08-03T07:41:46.609Z,101457.31
2022-08-03T07:44:14.559Z,101451.31
2022-08-03T07:46:42.017Z,101453.47
2022-08-03T07:49:09.749Z,101460.69
2022-08-03T07:51:37.385Z,101454.66
2022-08-03T07:54:05.351Z,101455.94
2022-08-03T07:56:32.783Z,101459.16
2022-08-03T07:59:00.436Z,101451.75
2022-08-03T08:01:27.925Z,101454.66
2022-08-03T08:03:55.566Z,101459.97
2022-08-03T08:06:23.029Z,101456.03
2022-08-03T08:08:50.552Z,101449.56
2022-08-03T08:11:18.024Z,101456.41
2022-08-03T08:13:45.487Z,101448.63
2022-08-03T08:16:12.922Z,101452.94
2022-08-03T08:18:40.363Z,101445.63
2022-08-03T08:21:08.686Z,101441.13
2022-08-03T08:23:42.278Z,101445.25
2022-08-03T08:26:13.468Z,101448.88
2022-08-03T08:28:41.192Z,101448.50
2022-08-03T08:31:08.616Z,101451.75
2022-08-03T08:34:01.356Z,101451.19
2022-08-03T08:36:24.271Z,101449.94
2022-08-03T08:38:52.774Z,101445.13
2022-08-03T08:41:20.223Z,101446.53
2022-08-03T08:43:47.736Z,101446.84
2022-08-03T08:46:22.744Z,101448.72
2022-08-03T08:48:53.593Z,101448.00
2022-08-03T08:51:22.665Z,101443.63
2022-08-03T08:53:53.862Z,101446.75
2022-08-03T08:56:25.784Z,101441.50
2022-08-03T08:58:59.110Z,101433.97
2022-08-03T09:01:27.675Z,101439.91
2022-08-03T09:03:55.479Z,101444.16
2022-08-03T09:06:24.654Z,101451.44
2022-08-03T09:08:52.262Z,101447.31
2022-08-03T09:11:53.461Z,101443.84
2022-08-03T09:14:39.234Z,101444.84
2022-08-03T09:17:05.169Z,101435.97
2022-08-03T09:19:35.116Z,101448.06
2022-08-03T09:22:18.588Z,101444.91
2022-08-03T09:25:23.799Z,101451.16
2022-08-03T09:27:52.057Z,101441.84
2022-08-03T09:30:34.066Z,101446.78
2022-08-03T09:33:09.275Z,101440.00
2022-08-03T09:35:57.309Z,101438.41
2022-08-03T09:38:28.808Z,101439.34
2022-08-03T09:41:00.355Z,101437.72
2022-08-03T09:43:28.769Z,101444.13
2022-08-03T09:46:05.144Z,101449.44
2022-08-03T09:48:37.250Z,101439.31
2022-08-03T09:51:13.517Z,101437.28
2022-08-03T09:53:58.773Z,101442.78
2022-08-03T09:56:40.681Z,101445.56
2022-08-03T09:59:10.349Z,101450.38
2022-08-03T10:01:41.759Z,101452.84
2022-08-03T10:04:14.912Z,101443.78
2022-08-03T10:06:46.248Z,101448.59
2022-08-03T10:09:16.750Z,101441.84
2022-08-03T10:11:46.918Z,101452.38
2022-08-03T10:14:20.919Z,101436.16
2022-08-03T10:16:49.416Z,101439.94
2022-08-03T10:19:17.480Z,101445.75
2022-08-03T10:21:55.984Z,101443.56
2022-08-03T10:24:30.698Z,101434.41
2022-08-03T10:27:08.010Z,101438.66
2022-08-03T10:29:45.316Z,101432.22
2022-08-03T10:32:24.178Z,101440.25
2022-08-03T10:35:12.349Z,101425.88
2022-08-03T10:38:01.654Z,101421.50
2022-08-03T10:40:48.216Z,101414.75
2022-08-03T10:43:27.642Z,101418.00
2022-08-03T10:45:56.403Z,101417.13
2022-08-03T10:48:26.367Z,101419.84
2022-08-03T10:50:54.690Z,101428.38
2022-08-03T10:53:47.727Z,101421.44
2022-08-03T10:56:50.919Z,101412.09
2022-08-03T10:59:46.366Z,101401.25
2022-08-03T11:02:15.547Z,101407.03
2022-08-03T11:04:44.749Z,101410.63
2022-08-03T11:07:22.404Z,101405.25
2022-08-03T11:09:53.829Z,101402.03
2022-08-03T11:12:30.154Z,101390.50
2022-08-03T11:15:07.631Z,101384.53
2022-08-03T11:17:46.252Z,101387.63
2022-08-03T11:20:46.816Z,101390.34
2022-08-03T11:23:16.638Z,101389.66
2022-08-03T11:26:09.939Z,101390.16
2022-08-03T11:28:41.495Z,101382.34
2022-08-03T11:31:49.187Z,101381.66
2022-08-03T11:34:17.805Z,101387.81
2022-08-03T11:37:27.561Z,101381.03
2022-08-03T11:39:57.687Z,101385.09
2022-08-03T11:42:26.226Z,101389.66
2022-08-03T11:45:00.059Z,101388.78
2022-08-03T11:47:30.083Z,101387.25
2022-08-03T11:50:02.026Z,101388.47
2022-08-03T11:52:39.798Z,101393.41
2022-08-03T11:55:13.421Z,101393.94
2022-08-03T11:59:10.623Z,101392.59
2022-08-03T12:00:32.517Z,101399.91
2022-08-03T12:03:06.186Z,101391.53
2022-08-03T12:05:54.970Z,101394.94
2022-08-03T12:08:28.278Z,101384.06
2022-08-03T12:11:00.018Z,101392.88
2022-08-03T12:14:45.595Z,101389.84
2022-08-03T12:16:53.755Z,101392.72
2022-08-03T12:19:21.209Z,101391.88
2022-08-03T12:21:56.819Z,101397.13
2022-08-03T12:24:28.383Z,101384.19
2022-08-03T12:26:59.999Z,101389.81
2022-08-03T12:29:28.010Z,101398.47
2022-08-03T12:31:56.318Z,101392.50
2022-08-03T12:34:24.051Z,101394.84
2022-08-03T12:36:55.955Z,101391.75
2022-08-03T12:39:31.059Z,101394.06
2022-08-03T12:41:58.724Z,101394.03
2022-08-03T12:44:35.639Z,101388.38
2022-08-03T12:47:06.620Z,101386.97
2022-08-03T12:49:49.133Z,101404.50
2022-08-03T12:52:19.225Z,101387.31
2022-08-03T12:55:01.011Z,101395.78
2022-08-03T12:57:42.993Z,101393.84
2022-08-03T13:00:21.591Z,101392.09
2022-08-03T13:03:38.914Z,101381.19
2022-08-03T13:05:52.098Z,101376.69
2022-08-03T13:08:24.106Z,101390.97
2022-08-03T13:10:51.873Z,101385.91
2022-08-03T13:13:39.131Z,101382.78
2022-08-03T13:16:07.688Z,101377.66
2022-08-03T13:18:35.193Z,101379.66
2022-08-03T13:21:02.774Z,101378.59
2022-08-03T13:23:36.150Z,101379.09
2022-08-03T13:26:03.591Z,101371.97
2022-08-03T13:28:31.166Z,101376.53
2022-08-03T13:30:59.830Z,101375.88
2022-08-03T13:33:28.827Z,101373.47
2022-08-03T13:35:56.764Z,101379.69
2022-08-03T13:38:27.214Z,101365.47
2022-08-03T13:40:55.980Z,101367.47
2022-08-03T13:43:23.509Z,101373.94
2022-08-03T13:45:53.691Z,101371.88
2022-08-03T13:48:36.150Z,101370.81
2022-08-03T13:51:21.696Z,101378.94
2022-08-03T13:53:52.193Z,101365.56
2022-08-03T13:56:19.767Z,101370.66
2022-08-03T13:58:47.317Z,101375.28
2022-08-03T14:01:16.236Z,101368.78
2022-08-03T14:03:43.936Z,101366.72
2022-08-03T14:06:11.456Z,101372.53
2022-08-03T14:08:39.222Z,101375.00
2022-08-03T14:11:07.386Z,101370.13
2022-08-03T14:13:35.106Z,101370.59
2022-08-03T14:16:02.740Z,101361.19
2022-08-03T14:18:33.896Z,101362.97
2022-08-03T14:21:06.693Z,101360.97
2022-08-03T14:23:37.660Z,101352.00
2022-08-03T14:26:07.212Z,101344.66
2022-08-03T14:28:35.977Z,101345.13
2022-08-03T14:31:04.187Z,101343.50
2022-08-03T14:33:36.334Z,101339.34
2022-08-03T14:36:04.638Z,101337.56
2022-08-03T14:38:32.187Z,101338.28
2022-08-03T14:40:59.687Z,101342.84
2022-08-03T14:43:27.324Z,101330.47
2022-08-03T14:46:01.818Z,101333.06
2022-08-03T14:50:29.165Z,101319.47
2022-08-03T14:51:16.976Z,101318.63
2022-08-03T14:53:44.646Z,101322.31
2022-08-03T14:56:12.137Z,101314.91
2022-08-03T14:58:39.741Z,101322.56
2022-08-03T15:02:04.828Z,101319.16
2022-08-03T15:03:55.306Z,101313.88
2022-08-03T15:06:22.862Z,101306.00
2022-08-03T15:09:13.826Z,101307.50
2022-08-03T15:11:38.560Z,101303.56
2022-08-03T15:14:09.175Z,101300.13
2022-08-03T15:16:38.859Z,101298.78
2022-08-03T15:20:01.595Z,101296.69
2022-08-03T15:21:54.214Z,101302.19
2022-08-03T15:24:21.699Z,101300.56
2022-08-03T15:26:50.444Z,101296.88
2022-08-03T15:30:08.998Z,101292.75
2022-08-03T15:32:09.480Z,101295.00
2022-08-03T15:34:38.386Z,101294.59
2022-08-03T15:37:16.284Z,101291.47
2022-08-03T15:39:59.558Z,101298.72
2022-08-03T15:42:30.397Z,101299.22
2022-08-03T15:44:58.482Z,101295.88
2022-08-03T15:47:26.444Z,101289.13
2022-08-03T15:49:54.116Z,101295.69
2022-08-03T15:52:21.681Z,101286.78
2022-08-03T15:54:49.566Z,101285.81
2022-08-03T15:57:17.074Z,101292.38
2022-08-03T15:59:44.668Z,101286.91
2022-08-03T16:02:12.230Z,101284.84
2022-08-03T16:04:39.801Z,101279.00
2022-08-03T16:07:07.247Z,101276.97
2022-08-03T16:09:43.165Z,101267.66
2022-08-03T16:12:14.471Z,101275.66
2022-08-03T16:14:52.705Z,101266.09
2022-08-03T16:17:22.588Z,101276.06
2022-08-03T16:19:53.412Z,101268.38
2022-08-03T16:22:24.496Z,101263.47
2022-08-03T16:24:55.185Z,101271.81
2022-08-03T16:27:37.028Z,101262.03
2022-08-03T16:30:16.584Z,101268.81
2022-08-03T16:32:45.806Z,101263.44
2022-08-03T16:35:19.861Z,101264.38
2022-08-03T16:37:56.091Z,101266.59
2022-08-03T16:40:26.100Z,101258.78
2022-08-03T16:42:54.111Z,101264.91
2022-08-03T16:45:21.783Z,101264.13
2022-08-03T16:48:01.758Z,101259.94
2022-08-03T16:50:35.394Z,101256.16
2022-08-03T16:53:16.248Z,101261.22
2022-08-03T16:55:51.891Z,101257.84
2022-08-03T16:58:24.297Z,101258.41
2022-08-03T17:01:10.771Z,101256.47
2022-08-03T17:04:02.283Z,101255.81
2022-08-03T17:06:38.049Z,101255.19
2022-08-03T17:09:21.105Z,101253.28
2022-08-03T17:11:51.195Z,101252.03
2022-08-03T17:14:29.306Z,101259.41
2022-08-03T17:17:01.545Z,101247.63
2022-08-03T17:19:32.627Z,101246.72
2022-08-03T17:22:10.969Z,101250.41
2022-08-03T17:24:44.709Z,101254.09
2022-08-03T17:28:48.123Z,101244.56
2022-08-03T17:30:12.001Z,101246.00
2022-08-03T17:32:56.774Z,101245.56
2022-08-03T17:35:38.694Z,101256.44
2022-08-03T17:38:11.929Z,101248.63
2022-08-03T17:40:50.035Z,101249.88
2022-08-03T17:44:12.789Z,101243.69
2022-08-03T17:46:10.924Z,101249.06
2022-08-03T17:48:41.551Z,101243.22
2022-08-03T17:51:20.360Z,101243.66
2022-08-03T17:54:18.347Z,101246.75
2022-08-03T17:57:27.184Z,101249.00
2022-08-03T18:00:25.815Z,101245.34
2022-08-03T18:03:15.224Z,101251.00
2022-08-03T18:06:10.929Z,101259.97
2022-08-03T18:10:04.349Z,101251.72
2022-08-03T18:12:05.248Z,101252.88
2022-08-03T18:14:57.935Z,101244.59
2022-08-03T18:17:55.129Z,101243.22
2022-08-03T18:20:32.890Z,101248.28
2022-08-03T18:23:06.987Z,101243.25
2022-08-03T18:25:44.977Z,101249.41
2022-08-03T18:28:18.761Z,101250.34
2022-08-03T18:30:54.326Z,101244.78
2022-08-03T18:34:19.337Z,101243.78
2022-08-03T18:36:21.843Z,101246.34
2022-08-03T18:38:58.306Z,101239.25
2022-08-03T18:41:32.697Z,101243.31
2022-08-03T18:44:07.901Z,101242.66
2022-08-03T18:47:18.481Z,101241.28
2022-08-03T18:50:19.219Z,101244.66
2022-08-03T18:53:19.335Z,101234.28
2022-08-03T18:56:02.816Z,101237.81
2022-08-03T18:59:02.491Z,101232.16
2022-08-03T19:02:00.946Z,101244.00
2022-08-03T19:04:46.579Z,101242.22
2022-08-03T19:07:25.947Z,101250.75
2022-08-03T19:09:59.298Z,101256.72
2022-08-03T19:12:52.365Z,101247.94
2022-08-03T19:15:36.813Z,101259.09
2022-08-03T19:18:16.133Z,101257.00
2022-08-03T19:20:46.753Z,101262.59
2022-08-03T19:23:15.703Z,101260.69
2022-08-03T19:25:44.508Z,101264.22
2022-08-03T19:28:12.039Z,101250.63
2022-08-03T19:30:40.640Z,101254.09
2022-08-03T19:33:15.757Z,101258.16
2022-08-03T19:35:55.116Z,101254.91
2022-08-03T19:38:27.555Z,101265.50
2022-08-03T19:41:02.193Z,101267.91
2022-08-03T19:43:52.604Z,101262.25
2022-08-03T19:46:30.645Z,101265.84
2022-08-03T19:49:14.796Z,101262.72
2022-08-03T19:52:01.597Z,101272.03
2022-08-03T19:54:52.970Z,101269.03
2022-08-03T19:57:25.239Z,101261.06
2022-08-03T19:59:57.447Z,101268.41
2022-08-03T20:02:26.802Z,101262.09
2022-08-03T20:04:57.099Z,101273.84
2022-08-03T20:07:27.435Z,101269.38
2022-08-03T20:09:56.662Z,101267.75
2022-08-03T20:12:31.248Z,101265.16
2022-08-03T20:15:00.959Z,101281.38
2022-08-03T20:17:54.832Z,101275.81
2022-08-03T20:20:27.333Z,101276.59
2022-08-03T20:22:57.997Z,101269.03
2022-08-03T20:25:37.571Z,101268.53
2022-08-03T20:28:14.098Z,101272.63
2022-08-03T20:30:47.148Z,101263.34
2022-08-03T20:33:18.719Z,101264.88
2022-08-03T20:35:49.664Z,101260.00
2022-08-03T20:38:18.829Z,101264.06
2022-08-03T20:40:48.366Z,101268.13
2022-08-03T20:43:17.018Z,101270.22
2022-08-03T20:45:59.073Z,101269.75
2022-08-03T20:48:29.878Z,101264.97
2022-08-03T20:50:59.643Z,101269.16
2022-08-03T20:53:57.053Z,101266.38
2022-08-03T20:56:16.114Z,101268.22
2022-08-03T20:58:50.506Z,101268.72
2022-08-03T21:01:27.881Z,101264.84
2022-08-03T21:04:09.264Z,101266.41
2022-08-03T21:06:45.745Z,101258.84
2022-08-03T21:09:33.507Z,101269.25
2022-08-03T21:12:18.480Z,101267.88
2022-08-03T21:14:57.432Z,101264.59
2022-08-03T21:17:40.077Z,101260.28
2022-08-03T21:20:11.735Z,101257.13
2022-08-03T21:22:47.045Z,101254.66
2022-08-03T21:25:16.400Z,101260.41
2022-08-03T21:27:44.045Z,101247.34
2022-08-03T21:30:12.528Z,101252.97
2022-08-03T21:32:43.250Z,101244.31
2022-08-03T21:35:13.325Z,101243.81
2022-08-03T21:37:43.171Z,101243.31
2022-08-03T21:40:13.932Z,101244.53
2022-08-03T21:42:45.340Z,101246.59
2022-08-03T21:45:17.443Z,101235.34
2022-08-03T21:47:47.238Z,101235.81
2022-08-03T21:50:15.802Z,101233.50
2022-08-03T21:52:48.652Z,101236.31
2022-08-03T21:55:18.339Z,101243.88
2022-08-03T21:57:53.555Z,101232.38
2022-08-03T22:00:23.184Z,101238.84
2022-08-03T22:02:58.200Z,101230.16
2022-08-03T22:05:42.887Z,101234.28
2022-08-03T22:08:13.811Z,101226.59
2022-08-03T22:10:45.488Z,101229.63
2022-08-03T22:13:19.482Z,101230.00
2022-08-03T22:16:04.539Z,101232.25
2022-08-03T22:18:32.282Z,101233.34
2022-08-03T22:21:00.819Z,101228.25
2022-08-03T22:23:28.345Z,101232.97
2022-08-03T22:25:59.685Z,101215.38
2022-08-03T22:28:30.378Z,101230.84
2022-08-03T22:31:00.075Z,101224.84
2022-08-03T22:33:53.335Z,101225.94
2022-08-03T22:36:24.206Z,101223.63
2022-08-03T22:38:53.167Z,101220.19
2022-08-03T22:41:21.393Z,101214.09
2022-08-03T22:43:49.920Z,101217.72
2022-08-03T22:46:21.962Z,101220.56
2022-08-03T22:48:51.052Z,101227.72
2022-08-03T22:51:21.795Z,101221.63
2022-08-03T22:53:50.131Z,101221.84
2022-08-03T22:56:17.841Z,101215.72
2022-08-03T22:58:45.341Z,101199.84
2022-08-03T23:01:21.716Z,101203.50
2022-08-03T23:04:02.322Z,101208.97
2022-08-03T23:06:42.647Z,101208.22
2022-08-03T23:09:13.493Z,101208.22
2022-08-03T23:11:45.608Z,101207.38
2022-08-03T23:14:18.944Z,101207.50
2022-08-03T23:16:50.190Z,101204.91
2022-08-03T23:19:25.497Z,101210.28
2022-08-03T23:22:02.527Z,101204.19
2022-08-03T23:24:36.211Z,101204.41
2022-08-03T23:27:09.187Z,101208.28
2022-08-03T23:29:42.184Z,101205.09
2022-08-03T23:32:10.668Z,101210.88
2022-08-03T23:34:59.296Z,101205.97
2022-08-03T23:37:27.084Z,101201.94
2022-08-03T23:39:57.095Z,101207.50
2022-08-03T23:42:26.203Z,101208.69
2022-08-03T23:44:59.541Z,101202.69
2022-08-03T23:47:46.011Z,101203.03
2022-08-03T23:50:15.729Z,101196.19
2022-08-03T23:53:08.013Z,101194.59
2022-08-03T23:56:14.600Z,101185.06
2022-08-03T23:59:14.018Z,101191.78
